createdAt,value
2018-04-14T00:01:40.141Z,101052.30
2018-04-14T00:04:08.285Z,101054.44
2018-04-14T00:06:36.425Z,101060.53
2018-04-14T00:09:04.549Z,101060.14
2018-04-14T00:11:32.785Z,101063.11
2018-04-14T00:14:00.925Z,101066.62
2018-04-14T00:16:29.069Z,101062.30
2018-04-14T00:18:57.216Z,101068.88
2018-04-14T00:21:25.362Z,101071.20
2018-04-14T00:23:53.494Z,101071.45
2018-04-14T00:26:21.848Z,101077.84
2018-04-14T00:28:49.983Z,101083.88
2018-04-14T00:31:18.118Z,101079.81
2018-04-14T00:33:46.272Z,101077.03
2018-04-14T00:36:14.444Z,101079.38
2018-04-14T00:38:42.606Z,101084.05
2018-04-14T00:41:10.752Z,101080.91
2018-04-14T00:43:38.896Z,101088.46
2018-04-14T00:46:07.007Z,101090.67
2018-04-14T00:48:35.130Z,101087.61
2018-04-14T00:51:03.274Z,101086.44
2018-04-14T00:53:43.280Z,101092.52
2018-04-14T00:56:11.397Z,101097.19
2018-04-14T00:58:39.552Z,101105.59
2018-04-14T01:01:07.701Z,101106.16
2018-04-14T01:03:35.854Z,101112.11
2018-04-14T01:06:03.996Z,101112.84
2018-04-14T01:08:32.381Z,101111.86
2018-04-14T01:11:00.525Z,101112.38
2018-04-14T01:13:28.639Z,101110.41
2018-04-14T01:15:56.817Z,101108.55
2018-04-14T01:18:24.931Z,101112.67
2018-04-14T01:20:53.056Z,101110.95
2018-04-14T01:23:21.218Z,101119.58
2018-04-14T01:25:49.341Z,101118.11
2018-04-14T01:28:17.463Z,101116.61
2018-04-14T01:30:45.732Z,101116.38
2018-04-14T01:33:13.847Z,101114.11
2018-04-14T01:35:41.981Z,101116.88
2018-04-14T01:38:10.146Z,101113.53
2018-04-14T01:40:38.276Z,101114.88
2018-04-14T01:43:06.437Z,101118.02
2018-04-14T01:45:34.570Z,101115.26
2018-04-14T01:48:02.803Z,101115.64
2018-04-14T01:50:30.929Z,101119.64
2018-04-14T01:52:59.081Z,101121.05
2018-04-14T01:55:27.197Z,101120.74
2018-04-14T01:57:55.338Z,101117.59
2018-04-14T02:00:23.499Z,101117.23
2018-04-14T02:02:51.622Z,101120.23
2018-04-14T02:05:19.782Z,101122.07
2018-04-14T02:07:47.908Z,101122.71
2018-04-14T02:10:16.052Z,101125.41
2018-04-14T02:12:44.178Z,101117.78
2018-04-14T02:15:12.325Z,101115.59
2018-04-14T02:17:40.614Z,101121.22
2018-04-14T02:20:08.724Z,101125.02
2018-04-14T02:22:36.888Z,101120.92
2018-04-14T02:25:04.998Z,101122.44
2018-04-14T02:27:33.138Z,101122.45
2018-04-14T02:30:01.283Z,101119.33
2018-04-14T02:32:29.424Z,101114.46
2018-04-14T02:34:57.542Z,101117.70
2018-04-14T02:37:25.682Z,101113.48
2018-04-14T02:39:53.803Z,101124.05
2018-04-14T02:42:25.696Z,101119.76
2018-04-14T02:44:54.048Z,101128.41
2018-04-14T02:47:22.223Z,101132.16
2018-04-14T02:49:50.337Z,101129.75
2018-04-14T02:52:18.506Z,101127.47
2018-04-14T02:54:46.633Z,101130.01
2018-04-14T02:57:14.782Z,101127.80
2018-04-14T02:59:42.930Z,101126.86
2018-04-14T03:02:11.069Z,101129.92
2018-04-14T03:04:39.202Z,101132.02
2018-04-14T03:07:07.338Z,101134.91
2018-04-14T03:09:35.458Z,101141.13
2018-04-14T03:12:03.579Z,101147.69
2018-04-14T03:14:31.729Z,101142.75
2018-04-14T03:16:59.867Z,101135.20
2018-04-14T03:19:28.001Z,101146.43
2018-04-14T03:21:56.318Z,101146.73
2018-04-14T03:24:24.439Z,101143.67
2018-04-14T03:26:52.598Z,101146.20
2018-04-14T03:29:20.751Z,101144.86
2018-04-14T03:31:48.891Z,101150.05
2018-04-14T03:34:17.031Z,101158.66
2018-04-14T03:36:45.199Z,101158.17
2018-04-14T03:39:13.306Z,101159.66
2018-04-14T03:41:41.458Z,101159.78
2018-04-14T03:44:09.594Z,101163.39
2018-04-14T03:46:37.708Z,101163.15
2018-04-14T03:49:05.859Z,101167.52
2018-04-14T03:51:34.158Z,101173.08
2018-04-14T03:54:02.276Z,101179.78
2018-04-14T03:56:30.420Z,101180.73
2018-04-14T03:58:58.583Z,101174.45
2018-04-14T04:01:26.718Z,101175.69
2018-04-14T04:03:54.860Z,101175.55
2018-04-14T04:06:23.009Z,101181.48
2018-04-14T04:08:51.158Z,101188.55
2018-04-14T04:11:19.300Z,101196.82
2018-04-14T04:13:47.653Z,101204.51
2018-04-14T04:16:16.897Z,101201.73
2018-04-14T04:18:57.016Z,101204.31
2018-04-14T04:21:36.767Z,101209.77
2018-04-14T04:24:16.973Z,101211.05
2018-04-14T04:26:45.146Z,101216.87
2018-04-14T04:29:13.351Z,101219.70
2018-04-14T04:31:41.701Z,101224.02
2018-04-14T04:34:09.860Z,101226.53
2018-04-14T04:36:37.992Z,101228.48
2018-04-14T04:39:06.126Z,101223.95
2018-04-14T04:41:34.263Z,101221.62
2018-04-14T04:44:02.416Z,101219.91
2018-04-14T04:46:30.574Z,101234.32
2018-04-14T04:48:58.740Z,101243.80
2018-04-14T04:51:26.850Z,101245.73
2018-04-14T04:53:54.986Z,101242.78
2018-04-14T04:56:23.110Z,101251.50
2018-04-14T04:58:51.253Z,101254.37
2018-04-14T05:01:19.407Z,101259.97
2018-04-14T05:03:47.545Z,101262.70
2018-04-14T05:06:15.677Z,101265.70
2018-04-14T05:08:43.833Z,101272.48
2018-04-14T05:11:11.965Z,101265.61
2018-04-14T05:13:40.091Z,101265.80
2018-04-14T05:16:08.250Z,101261.29
2018-04-14T05:18:36.377Z,101266.39
2018-04-14T05:21:04.492Z,101266.39
2018-04-14T05:23:32.702Z,101268.59
2018-04-14T05:26:00.852Z,101271.66
2018-04-14T05:28:28.974Z,101277.30
2018-04-14T05:30:57.141Z,101277.94
2018-04-14T05:33:25.284Z,101291.73
2018-04-14T05:35:53.411Z,101282.88
2018-04-14T05:38:21.556Z,101286.78
2018-04-14T05:40:49.690Z,101288.52
2018-04-14T05:43:21.541Z,101294.59
2018-04-14T05:45:49.704Z,101297.16
2018-04-14T05:48:17.868Z,101297.09
2018-04-14T05:50:45.981Z,101299.97
2018-04-14T05:53:14.128Z,101300.97
2018-04-14T05:55:42.258Z,101304.27
2018-04-14T05:58:10.414Z,101310.34
2018-04-14T06:00:38.570Z,101299.50
2018-04-14T06:03:06.708Z,101301.86
2018-04-14T06:05:34.855Z,101305.09
2018-04-14T06:08:03.004Z,101312.05
2018-04-14T06:10:31.131Z,101313.98
2018-04-14T06:12:59.250Z,101311.18
2018-04-14T06:15:27.396Z,101307.34
2018-04-14T06:17:55.516Z,101314.11
2018-04-14T06:20:23.653Z,101312.91
2018-04-14T06:22:51.813Z,101324.81
2018-04-14T06:25:19.958Z,101320.48
2018-04-14T06:27:48.065Z,101325.28
2018-04-14T06:30:16.202Z,101339.84
2018-04-14T06:32:44.354Z,101338.63
2018-04-14T06:35:12.532Z,101344.61
2018-04-14T06:37:40.713Z,101338.44
2018-04-14T06:40:08.865Z,101339.67
2018-04-14T06:42:37.016Z,101336.50
2018-04-14T06:45:05.155Z,101341.95
2018-04-14T06:47:33.336Z,101354.25
2018-04-14T06:50:01.721Z,101355.84
2018-04-14T06:52:29.876Z,101349.19
2018-04-14T06:54:58.015Z,101365.30
2018-04-14T06:57:26.153Z,101364.41
2018-04-14T06:59:54.448Z,101360.23
2018-04-14T07:02:26.352Z,101366.41
2018-04-14T07:04:54.487Z,101371.40
2018-04-14T07:07:22.619Z,101374.41
2018-04-14T07:09:50.776Z,101380.16
2018-04-14T07:12:18.885Z,101381.16
2018-04-14T07:14:47.041Z,101384.53
2018-04-14T07:17:15.171Z,101392.78
2018-04-14T07:19:43.298Z,101389.08
2018-04-14T07:22:11.427Z,101390.06
2018-04-14T07:24:39.647Z,101397.75
2018-04-14T07:27:07.789Z,101403.45
2018-04-14T07:29:35.923Z,101409.28
2018-04-14T07:32:04.060Z,101411.38
2018-04-14T07:34:32.195Z,101411.39
2018-04-14T07:37:00.324Z,101418.23
2018-04-14T07:39:28.451Z,101414.84
2018-04-14T07:41:56.566Z,101413.89
2018-04-14T07:44:24.711Z,101416.88
2018-04-14T07:46:52.835Z,101418.19
2018-04-14T07:49:20.973Z,101424.63
2018-04-14T07:51:49.103Z,101422.05
2018-04-14T07:54:17.251Z,101428.13
2018-04-14T07:56:45.362Z,101427.16
2018-04-14T07:59:13.524Z,101437.63
2018-04-14T08:01:41.776Z,101442.20
2018-04-14T08:04:09.994Z,101452.12
2018-04-14T08:06:38.124Z,101449.16
2018-04-14T08:09:10.088Z,101450.74
2018-04-14T08:11:38.276Z,101454.61
2018-04-14T08:14:09.833Z,101446.53
2018-04-14T08:16:37.954Z,101447.39
2018-04-14T08:19:06.091Z,101442.78
2018-04-14T08:21:34.238Z,101435.53
2018-04-14T08:24:02.370Z,101439.31
2018-04-14T08:26:30.515Z,101449.21
2018-04-14T08:28:58.669Z,101453.63
2018-04-14T08:31:26.816Z,101450.69
2018-04-14T08:33:54.959Z,101457.63
2018-04-14T08:36:23.408Z,101461.06
2018-04-14T08:38:52.467Z,101462.65
2018-04-14T08:41:20.958Z,101464.95
2018-04-14T08:43:49.100Z,101460.28
2018-04-14T08:46:17.229Z,101469.19
2018-04-14T08:48:45.388Z,101464.69
2018-04-14T08:51:13.526Z,101467.48
2018-04-14T08:53:41.659Z,101468.17
2018-04-14T08:56:09.786Z,101469.91
2018-04-14T08:58:37.943Z,101476.27
2018-04-14T09:01:06.067Z,101473.78
2018-04-14T09:03:34.216Z,101480.75
2018-04-14T09:06:02.367Z,101479.80
2018-04-14T09:08:30.499Z,101475.45
2018-04-14T09:10:58.927Z,101480.79
2018-04-14T09:13:27.068Z,101479.70
2018-04-14T09:15:55.194Z,101480.66
2018-04-14T09:18:23.330Z,101482.09
2018-04-14T09:20:51.503Z,101479.05
2018-04-14T09:23:19.638Z,101483.58
2018-04-14T09:25:47.780Z,101477.69
2018-04-14T09:28:15.921Z,101479.34
2018-04-14T09:30:44.041Z,101482.76
2018-04-14T09:33:12.193Z,101482.02
2018-04-14T09:35:40.584Z,101482.80
2018-04-14T09:38:10.631Z,101486.88
2018-04-14T09:40:38.751Z,101484.12
2018-04-14T09:43:06.932Z,101494.01
2018-04-14T09:45:35.048Z,101490.00
2018-04-14T09:48:03.180Z,101489.14
2018-04-14T09:50:31.333Z,101492.59
2018-04-14T09:52:59.478Z,101486.38
2018-04-14T09:55:27.615Z,101481.66
2018-04-14T09:57:55.776Z,101479.02
2018-04-14T10:00:27.790Z,101482.36
2018-04-14T10:03:00.819Z,101487.84
2018-04-14T10:05:28.900Z,101491.35
2018-04-14T10:07:57.909Z,101485.50
2018-04-14T10:10:26.090Z,101485.77
2018-04-14T10:12:54.214Z,101482.03
2018-04-14T10:15:22.320Z,101484.39
2018-04-14T10:17:50.516Z,101489.30
2018-04-14T10:20:18.665Z,101484.30
2018-04-14T10:22:46.794Z,101481.92
2018-04-14T10:25:14.933Z,101480.79
2018-04-14T10:27:43.066Z,101481.23
2018-04-14T10:30:11.208Z,101467.16
2018-04-14T10:32:39.349Z,101480.85
2018-04-14T10:35:07.463Z,101477.93
2018-04-14T10:37:35.625Z,101478.84
2018-04-14T10:40:03.770Z,101482.73
2018-04-14T10:42:31.914Z,101480.97
2018-04-14T10:45:00.115Z,101487.03
2018-04-14T10:47:28.246Z,101487.20
2018-04-14T10:49:56.392Z,101486.87
2018-04-14T10:52:24.511Z,101482.51
2018-04-14T10:54:52.741Z,101480.08
2018-04-14T10:57:20.884Z,101474.89
2018-04-14T10:59:48.996Z,101469.25
2018-04-14T11:02:17.139Z,101472.98
2018-04-14T11:04:45.257Z,101467.47
2018-04-14T11:07:13.387Z,101473.75
2018-04-14T11:09:41.752Z,101473.92
2018-04-14T11:12:09.901Z,101477.87
2018-04-14T11:14:38.073Z,101467.98
2018-04-14T11:17:06.357Z,101470.77
2018-04-14T11:19:34.495Z,101466.56
2018-04-14T11:22:02.638Z,101463.35
2018-04-14T11:24:30.908Z,101460.77
2018-04-14T11:26:59.055Z,101462.04
2018-04-14T11:29:27.190Z,101466.97
2018-04-14T11:31:55.350Z,101469.70
2018-04-14T11:34:23.521Z,101469.81
2018-04-14T11:36:51.646Z,101467.80
2018-04-14T11:39:19.792Z,101466.98
2018-04-14T11:41:47.942Z,101466.47
2018-04-14T11:44:16.086Z,101465.30
2018-04-14T11:46:44.246Z,101470.55
2018-04-14T11:49:12.404Z,101468.63
2018-04-14T11:51:40.511Z,101467.80
2018-04-14T11:54:08.665Z,101474.99
2018-04-14T11:56:36.821Z,101471.58
2018-04-14T11:59:04.963Z,101472.11
2018-04-14T12:01:33.117Z,101468.91
2018-04-14T12:04:01.280Z,101471.77
2018-04-14T12:06:29.428Z,101471.41
2018-04-14T12:08:57.826Z,101470.67
2018-04-14T12:11:26.048Z,101482.13
2018-04-14T12:13:54.184Z,101470.57
2018-04-14T12:16:22.360Z,101480.95
2018-04-14T12:18:50.492Z,101478.09
2018-04-14T12:21:18.637Z,101479.33
2018-04-14T12:23:46.784Z,101473.10
2018-04-14T12:26:14.914Z,101476.89
2018-04-14T12:28:43.035Z,101468.34
2018-04-14T12:31:11.198Z,101476.30
2018-04-14T12:33:39.329Z,101473.80
2018-04-14T12:36:07.473Z,101473.15
2018-04-14T12:38:35.606Z,101476.46
2018-04-14T12:41:03.764Z,101476.82
2018-04-14T12:43:31.911Z,101464.88
2018-04-14T12:46:00.050Z,101458.82
2018-04-14T12:48:28.192Z,101460.92
2018-04-14T12:50:56.327Z,101461.20
2018-04-14T12:53:24.471Z,101472.83
2018-04-14T12:55:52.611Z,101463.37
2018-04-14T12:58:20.754Z,101459.68
2018-04-14T13:00:49.101Z,101454.48
2018-04-14T13:03:17.229Z,101450.55
2018-04-14T13:05:45.363Z,101457.58
2018-04-14T13:08:16.849Z,101455.01
2018-04-14T13:10:45.014Z,101467.50
2018-04-14T13:13:13.164Z,101463.55
2018-04-14T13:15:41.271Z,101464.05
2018-04-14T13:18:09.406Z,101458.48
2018-04-14T13:20:37.528Z,101448.52
2018-04-14T13:23:05.683Z,101452.25
2018-04-14T13:25:33.844Z,101452.86
2018-04-14T13:28:01.973Z,101451.33
2018-04-14T13:30:30.111Z,101452.06
2018-04-14T13:32:58.255Z,101454.50
2018-04-14T13:35:26.382Z,101460.77
2018-04-14T13:37:54.524Z,101453.85
2018-04-14T13:40:22.671Z,101449.48
2018-04-14T13:42:50.793Z,101443.22
2018-04-14T13:45:18.939Z,101442.37
2018-04-14T13:47:47.149Z,101447.73
2018-04-14T13:50:15.280Z,101441.29
2018-04-14T13:52:43.436Z,101435.67
2018-04-14T13:55:11.599Z,101443.14
2018-04-14T13:57:39.713Z,101432.06
2018-04-14T14:00:07.989Z,101428.75
2018-04-14T14:02:36.134Z,101436.25
2018-04-14T14:05:04.260Z,101434.68
2018-04-14T14:07:32.684Z,101429.80
2018-04-14T14:10:00.824Z,101427.42
2018-04-14T14:12:28.955Z,101419.63
2018-04-14T14:15:02.397Z,101416.28
2018-04-14T14:17:31.124Z,101402.02
2018-04-14T14:19:59.360Z,101396.05
2018-04-14T14:22:27.555Z,101397.12
2018-04-14T14:24:55.767Z,101402.94
2018-04-14T14:27:23.920Z,101401.38
2018-04-14T14:29:52.041Z,101401.34
2018-04-14T14:32:20.200Z,101405.61
2018-04-14T14:34:48.325Z,101407.27
2018-04-14T14:37:16.458Z,101395.63
2018-04-14T14:39:44.588Z,101396.91
2018-04-14T14:42:12.716Z,101383.98
2018-04-14T14:44:40.853Z,101389.34
2018-04-14T14:47:09.004Z,101387.64
2018-04-14T14:49:37.139Z,101381.71
2018-04-14T14:52:05.270Z,101379.59
2018-04-14T14:54:33.394Z,101373.22
2018-04-14T14:57:01.536Z,101359.31
2018-04-14T14:59:32.837Z,101356.59
2018-04-14T15:02:00.963Z,101350.80
2018-04-14T15:04:29.127Z,101352.06
2018-04-14T15:06:57.250Z,101347.92
2018-04-14T15:09:25.384Z,101346.00
2018-04-14T15:11:53.776Z,101340.09
2018-04-14T15:14:21.914Z,101349.26
2018-04-14T15:16:50.058Z,101353.63
2018-04-14T15:19:18.205Z,101352.33
2018-04-14T15:21:46.333Z,101351.92
2018-04-14T15:24:14.477Z,101344.28
2018-04-14T15:26:42.808Z,101334.94
2018-04-14T15:29:10.930Z,101336.92
2018-04-14T15:31:39.071Z,101333.59
2018-04-14T15:34:07.217Z,101332.45
2018-04-14T15:36:35.360Z,101324.61
2018-04-14T15:39:03.485Z,101329.48
2018-04-14T15:41:31.651Z,101326.52
2018-04-14T15:43:59.783Z,101323.38
2018-04-14T15:46:27.927Z,101322.91
2018-04-14T15:48:56.080Z,101325.96
2018-04-14T15:51:24.214Z,101322.87
2018-04-14T15:53:52.375Z,101333.62
2018-04-14T15:56:20.528Z,101333.01
2018-04-14T15:58:48.683Z,101333.17
2018-04-14T16:01:16.835Z,101326.95
2018-04-14T16:03:45.056Z,101331.25
2018-04-14T16:06:13.117Z,101337.91
2018-04-14T16:08:41.244Z,101334.10
2018-04-14T16:11:09.390Z,101337.30
2018-04-14T16:13:37.510Z,101337.14
2018-04-14T16:16:05.660Z,101335.10
2018-04-14T16:18:33.793Z,101343.37
2018-04-14T16:21:01.943Z,101344.55
2018-04-14T16:23:30.116Z,101337.36
2018-04-14T16:25:58.240Z,101341.12
2018-04-14T16:28:26.404Z,101343.58
2018-04-14T16:30:54.544Z,101347.53
2018-04-14T16:33:22.681Z,101346.70
2018-04-14T16:35:50.842Z,101343.59
2018-04-14T16:38:18.992Z,101342.05
2018-04-14T16:40:47.142Z,101336.13
2018-04-14T16:43:15.254Z,101332.48
2018-04-14T16:45:43.373Z,101335.90
2018-04-14T16:48:11.539Z,101335.81
2018-04-14T16:50:39.765Z,101335.64
2018-04-14T16:53:07.907Z,101340.59
2018-04-14T16:55:36.069Z,101341.98
2018-04-14T16:58:04.275Z,101338.64
2018-04-14T17:00:33.003Z,101341.40
2018-04-14T17:03:01.699Z,101343.84
2018-04-14T17:05:30.575Z,101335.83
2018-04-14T17:07:59.827Z,101335.56
2018-04-14T17:10:28.766Z,101334.13
2018-04-14T17:12:56.999Z,101331.56
2018-04-14T17:15:25.127Z,101329.63
2018-04-14T17:17:53.341Z,101320.44
2018-04-14T17:20:21.493Z,101325.41
2018-04-14T17:22:49.615Z,101327.77
2018-04-14T17:25:18.232Z,101332.23
2018-04-14T17:27:46.380Z,101325.48
2018-04-14T17:30:14.523Z,101323.72
2018-04-14T17:32:42.676Z,101321.83
2018-04-14T17:35:10.824Z,101321.20
2018-04-14T17:37:38.962Z,101329.34
2018-04-14T17:40:07.138Z,101327.02
2018-04-14T17:42:35.265Z,101331.53
2018-04-14T17:45:03.515Z,101329.56
2018-04-14T17:47:31.680Z,101323.14
2018-04-14T17:50:00.052Z,101325.65
2018-04-14T17:52:28.186Z,101325.94
2018-04-14T17:54:56.315Z,101328.40
2018-04-14T17:57:24.426Z,101333.23
2018-04-14T17:59:52.556Z,101330.31
2018-04-14T18:02:20.707Z,101328.87
2018-04-14T18:04:48.849Z,101328.34
2018-04-14T18:07:17.254Z,101333.98
2018-04-14T18:09:45.416Z,101329.19
2018-04-14T18:12:13.585Z,101329.33
2018-04-14T18:14:41.699Z,101333.77
2018-04-14T18:17:09.860Z,101331.66
2018-04-14T18:19:38.016Z,101334.13
2018-04-14T18:22:06.146Z,101333.73
2018-04-14T18:24:34.285Z,101333.48
2018-04-14T18:27:02.419Z,101331.21
2018-04-14T18:29:30.560Z,101333.25
2018-04-14T18:31:58.712Z,101328.87
2018-04-14T18:34:26.827Z,101332.31
2018-04-14T18:36:54.935Z,101333.73
2018-04-14T18:39:23.101Z,101339.47
2018-04-14T18:41:51.242Z,101334.25
2018-04-14T18:44:19.354Z,101339.38
2018-04-14T18:46:47.487Z,101344.53
2018-04-14T18:49:15.640Z,101343.56
2018-04-14T18:51:43.775Z,101332.84
2018-04-14T18:54:11.913Z,101340.66
2018-04-14T18:56:40.066Z,101344.88
2018-04-14T18:59:08.195Z,101342.13
2018-04-14T19:01:36.354Z,101342.63
2018-04-14T19:04:04.512Z,101346.19
2018-04-14T19:06:32.658Z,101336.40
2018-04-14T19:09:00.818Z,101344.39
2018-04-14T19:11:28.971Z,101340.44
2018-04-14T19:13:57.066Z,101339.75
2018-04-14T19:16:25.209Z,101337.34
2018-04-14T19:18:56.997Z,101345.16
2018-04-14T19:21:28.847Z,101342.34
2018-04-14T19:23:56.987Z,101352.86
2018-04-14T19:26:25.121Z,101354.39
2018-04-14T19:28:53.253Z,101351.34
2018-04-14T19:31:21.419Z,101347.42
2018-04-14T19:33:49.565Z,101344.92
2018-04-14T19:36:17.686Z,101345.48
2018-04-14T19:38:48.825Z,101348.00
2018-04-14T19:41:16.953Z,101344.53
2018-04-14T19:43:45.091Z,101337.93
2018-04-14T19:46:13.223Z,101340.88
2018-04-14T19:48:41.388Z,101343.50
2018-04-14T19:51:09.815Z,101333.55
2018-04-14T19:53:37.951Z,101333.36
2018-04-14T19:56:06.086Z,101342.85
2018-04-14T19:58:34.230Z,101342.06
2018-04-14T20:01:02.348Z,101342.69
2018-04-14T20:03:30.489Z,101340.34
2018-04-14T20:05:58.623Z,101336.86
2018-04-14T20:08:26.749Z,101341.44
2018-04-14T20:10:55.333Z,101340.48
2018-04-14T20:13:23.509Z,101326.11
2018-04-14T20:15:51.616Z,101325.25
2018-04-14T20:18:19.753Z,101331.81
2018-04-14T20:20:47.947Z,101334.02
2018-04-14T20:23:16.042Z,101333.58
2018-04-14T20:25:44.244Z,101322.80
2018-04-14T20:28:13.292Z,101322.95
2018-04-14T20:30:41.431Z,101327.17
2018-04-14T20:33:09.554Z,101334.89
2018-04-14T20:35:37.706Z,101333.49
2018-04-14T20:38:05.837Z,101335.95
2018-04-14T20:40:33.955Z,101334.38
2018-04-14T20:43:02.120Z,101335.06
2018-04-14T20:45:30.248Z,101331.71
2018-04-14T20:47:58.392Z,101330.44
2018-04-14T20:50:26.533Z,101321.80
2018-04-14T20:52:58.525Z,101328.02
2018-04-14T20:55:26.765Z,101319.11
2018-04-14T20:57:54.899Z,101328.02
2018-04-14T21:00:23.020Z,101328.15
2018-04-14T21:02:51.180Z,101320.88
2018-04-14T21:05:19.324Z,101316.77
2018-04-14T21:07:47.446Z,101317.50
2018-04-14T21:10:15.559Z,101316.22
2018-04-14T21:12:43.718Z,101317.88
2018-04-14T21:15:11.895Z,101311.85
2018-04-14T21:17:40.036Z,101311.64
2018-04-14T21:20:08.155Z,101309.98
2018-04-14T21:22:36.303Z,101314.34
2018-04-14T21:25:04.428Z,101308.49
2018-04-14T21:27:32.573Z,101306.45
2018-04-14T21:30:00.718Z,101302.52
2018-04-14T21:32:28.839Z,101301.04
2018-04-14T21:34:56.970Z,101296.09
2018-04-14T21:37:25.119Z,101290.59
2018-04-14T21:39:53.236Z,101292.53
2018-04-14T21:42:21.383Z,101286.65
2018-04-14T21:44:49.505Z,101286.59
2018-04-14T21:47:17.650Z,101284.53
2018-04-14T21:49:49.403Z,101283.30
2018-04-14T21:52:17.637Z,101281.05
2018-04-14T21:54:45.797Z,101277.39
2018-04-14T21:57:14.042Z,101279.72
2018-04-14T21:59:42.226Z,101274.98
2018-04-14T22:02:10.372Z,101269.92
2018-04-14T22:04:38.575Z,101262.37
2018-04-14T22:07:06.777Z,101259.88
2018-04-14T22:09:34.888Z,101256.53
2018-04-14T22:12:03.015Z,101253.80
2018-04-14T22:14:33.102Z,101246.86
2018-04-14T22:17:01.230Z,101245.14
2018-04-14T22:19:29.366Z,101248.06
2018-04-14T22:21:57.501Z,101245.49
2018-04-14T22:24:25.630Z,101238.03
2018-04-14T22:26:53.784Z,101236.77
2018-04-14T22:29:23.903Z,101233.23
2018-04-14T22:31:52.086Z,101234.62
2018-04-14T22:34:20.236Z,101232.89
2018-04-14T22:36:48.424Z,101232.20
2018-04-14T22:39:16.607Z,101232.92
2018-04-14T22:41:44.843Z,101227.60
2018-04-14T22:44:12.997Z,101221.02
2018-04-14T22:46:41.164Z,101225.23
2018-04-14T22:49:09.354Z,101218.30
2018-04-14T22:51:37.571Z,101213.55
2018-04-14T22:54:05.739Z,101213.00
2018-04-14T22:56:33.865Z,101214.65
2018-04-14T22:59:02.011Z,101219.94
2018-04-14T23:01:30.146Z,101225.14
2018-04-14T23:03:58.281Z,101224.55
2018-04-14T23:06:26.500Z,101224.50
2018-04-14T23:08:54.621Z,101225.34
2018-04-14T23:11:22.762Z,101219.03
2018-04-14T23:13:50.907Z,101227.09
2018-04-14T23:16:19.052Z,101228.98
2018-04-14T23:18:47.276Z,101232.44
2018-04-14T23:21:15.399Z,101315.23
2018-04-14T23:23:43.528Z,101283.02
2018-04-14T23:26:11.669Z,101294.16
2018-04-14T23:28:39.794Z,101294.84
2018-04-14T23:31:07.931Z,101293.96
2018-04-14T23:33:36.075Z,101299.76
2018-04-14T23:36:04.197Z,101289.94
2018-04-14T23:38:32.312Z,101293.19
2018-04-14T23:41:00.477Z,101297.02
2018-04-14T23:43:28.602Z,101298.28
2018-04-14T23:45:56.733Z,101290.77
2018-04-14T23:48:24.855Z,101288.05
2018-04-14T23:50:52.993Z,101294.09
2018-04-14T23:53:24.988Z,101291.34
2018-04-14T23:55:53.123Z,101288.23
2018-04-14T23:58:21.256Z,101286.19
